sensor_id;sensor_type;location;lat;lon;timestamp;P1;durP1;ratioP1;P2;durP2;ratioP2
29574;SDS011;16507;51.046;6.406;2023-12-20T00:00:57;0.22;;;0.22;;
29574;SDS011;16507;51.046;6.406;2023-12-20T00:03:22;0.20;;;0.20;;
29574;SDS011;16507;51.046;6.406;2023-12-20T00:05:49;0.03;;;0.03;;
29574;SDS011;16507;51.046;6.406;2023-12-20T00:08:15;4.50;;;1.15;;
29574;SDS011;16507;51.046;6.406;2023-12-20T00:10:41;0.40;;;0.40;;
29574;SDS011;16507;51.046;6.406;2023-12-20T00:13:06;0.15;;;0.15;;
29574;SDS011;16507;51.046;6.406;2023-12-20T00:15:33;2.67;;;1.02;;
29574;SDS011;16507;51.046;6.406;2023-12-20T00:17:59;0.55;;;0.55;;
29574;SDS011;16507;51.046;6.406;2023-12-20T00:20:25;0.38;;;0.38;;
29574;SDS011;16507;51.046;6.406;2023-12-20T00:22:51;0.38;;;0.38;;
29574;SDS011;16507;51.046;6.406;2023-12-20T00:25:19;1.58;;;0.85;;
29574;SDS011;16507;51.046;6.406;2023-12-20T00:27:44;0.98;;;0.45;;
29574;SDS011;16507;51.046;6.406;2023-12-20T00:30:10;0.50;;;0.50;;
29574;SDS011;16507;51.046;6.406;2023-12-20T00:32:36;3.42;;;0.98;;
29574;SDS011;16507;51.046;6.406;2023-12-20T00:35:02;0.65;;;0.65;;
29574;SDS011;16507;51.046;6.406;2023-12-20T00:37:27;0.25;;;0.25;;
29574;SDS011;16507;51.046;6.406;2023-12-20T00:39:53;1.00;;;1.00;;
29574;SDS011;16507;51.046;6.406;2023-12-20T00:42:18;0.20;;;0.17;;
29574;SDS011;16507;51.046;6.406;2023-12-20T00:44:44;2.50;;;1.33;;
29574;SDS011;16507;51.046;6.406;2023-12-20T00:47:10;2.05;;;0.52;;
29574;SDS011;16507;51.046;6.406;2023-12-20T00:49:35;0.77;;;0.77;;
29574;SDS011;16507;51.046;6.406;2023-12-20T00:52:01;0.35;;;0.35;;
29574;SDS011;16507;51.046;6.406;2023-12-20T00:54:29;0.50;;;0.50;;
29574;SDS011;16507;51.046;6.406;2023-12-20T00:56:55;0.52;;;0.52;;
29574;SDS011;16507;51.046;6.406;2023-12-20T00:59:21;0.68;;;0.68;;
29574;SDS011;16507;51.046;6.406;2023-12-20T01:01:46;1.67;;;1.08;;
29574;SDS011;16507;51.046;6.406;2023-12-20T01:04:12;0.38;;;0.38;;
29574;SDS011;16507;51.046;6.406;2023-12-20T01:06:38;0.52;;;0.52;;
29574;SDS011;16507;51.046;6.406;2023-12-20T01:09:03;0.47;;;0.47;;
29574;SDS011;16507;51.046;6.406;2023-12-20T01:11:29;0.60;;;0.60;;
29574;SDS011;16507;51.046;6.406;2023-12-20T01:13:55;0.15;;;0.15;;
29574;SDS011;16507;51.046;6.406;2023-12-20T01:16:20;0.85;;;0.50;;
29574;SDS011;16507;51.046;6.406;2023-12-20T01:18:46;0.10;;;0.00;;
29574;SDS011;16507;51.046;6.406;2023-12-20T01:21:11;0.10;;;0.10;;
29574;SDS011;16507;51.046;6.406;2023-12-20T01:23:37;0.10;;;0.10;;
29574;SDS011;16507;51.046;6.406;2023-12-20T01:26:03;11.07;;;1.15;;
29574;SDS011;16507;51.046;6.406;2023-12-20T01:28:30;0.50;;;0.50;;
29574;SDS011;16507;51.046;6.406;2023-12-20T01:30:56;0.10;;;0.10;;
29574;SDS011;16507;51.046;6.406;2023-12-20T01:33:22;0.10;;;0.10;;
29574;SDS011;16507;51.046;6.406;2023-12-20T01:35:48;1.95;;;0.80;;
29574;SDS011;16507;51.046;6.406;2023-12-20T01:38:14;4.65;;;1.23;;
29574;SDS011;16507;51.046;6.406;2023-12-20T01:40:39;0.10;;;0.10;;
29574;SDS011;16507;51.046;6.406;2023-12-20T01:43:07;0.15;;;0.15;;
29574;SDS011;16507;51.046;6.406;2023-12-20T01:45:33;2.78;;;1.48;;
29574;SDS011;16507;51.046;6.406;2023-12-20T01:47:59;0.28;;;0.28;;
29574;SDS011;16507;51.046;6.406;2023-12-20T01:50:27;0.52;;;0.52;;
29574;SDS011;16507;51.046;6.406;2023-12-20T01:52:53;0.00;;;0.00;;
29574;SDS011;16507;51.046;6.406;2023-12-20T01:55:22;0.08;;;0.08;;
29574;SDS011;16507;51.046;6.406;2023-12-20T01:57:49;0.00;;;0.00;;
29574;SDS011;16507;51.046;6.406;2023-12-20T02:00:17;0.35;;;0.35;;
29574;SDS011;16507;51.046;6.406;2023-12-20T02:02:43;0.57;;;0.57;;
29574;SDS011;16507;51.046;6.406;2023-12-20T02:05:10;2.28;;;0.88;;
29574;SDS011;16507;51.046;6.406;2023-12-20T02:07:36;0.10;;;0.10;;
29574;SDS011;16507;51.046;6.406;2023-12-20T02:10:02;0.00;;;0.00;;
29574;SDS011;16507;51.046;6.406;2023-12-20T02:12:29;0.35;;;0.30;;
29574;SDS011;16507;51.046;6.406;2023-12-20T02:14:55;0.30;;;0.30;;
29574;SDS011;16507;51.046;6.406;2023-12-20T02:17:23;0.10;;;0.10;;
29574;SDS011;16507;51.046;6.406;2023-12-20T02:19:50;0.90;;;0.20;;
29574;SDS011;16507;51.046;6.406;2023-12-20T02:22:16;1.30;;;0.75;;
29574;SDS011;16507;51.046;6.406;2023-12-20T02:24:41;0.47;;;0.47;;
29574;SDS011;16507;51.046;6.406;2023-12-20T02:27:07;0.10;;;0.10;;
29574;SDS011;16507;51.046;6.406;2023-12-20T02:29:33;0.13;;;0.13;;
29574;SDS011;16507;51.046;6.406;2023-12-20T02:31:59;0.00;;;0.00;;
29574;SDS011;16507;51.046;6.406;2023-12-20T02:34:25;0.10;;;0.10;;
29574;SDS011;16507;51.046;6.406;2023-12-20T02:36:51;0.15;;;0.10;;
29574;SDS011;16507;51.046;6.406;2023-12-20T02:39:17;0.47;;;0.47;;
29574;SDS011;16507;51.046;6.406;2023-12-20T02:41:44;0.00;;;0.00;;
29574;SDS011;16507;51.046;6.406;2023-12-20T02:44:09;0.00;;;0.00;;
29574;SDS011;16507;51.046;6.406;2023-12-20T02:46:35;0.10;;;0.10;;
29574;SDS011;16507;51.046;6.406;2023-12-20T02:49:01;0.32;;;0.32;;
29574;SDS011;16507;51.046;6.406;2023-12-20T02:51:26;0.38;;;0.38;;
29574;SDS011;16507;51.046;6.406;2023-12-20T02:53:52;0.22;;;0.13;;
29574;SDS011;16507;51.046;6.406;2023-12-20T02:56:17;0.10;;;0.10;;
29574;SDS011;16507;51.046;6.406;2023-12-20T02:58:43;10.52;;;1.98;;
29574;SDS011;16507;51.046;6.406;2023-12-20T03:01:08;0.00;;;0.00;;
29574;SDS011;16507;51.046;6.406;2023-12-20T03:03:34;0.45;;;0.45;;
29574;SDS011;16507;51.046;6.406;2023-12-20T03:06:00;0.00;;;0.00;;
29574;SDS011;16507;51.046;6.406;2023-12-20T03:08:25;0.20;;;0.10;;
29574;SDS011;16507;51.046;6.406;2023-12-20T03:10:51;0.65;;;0.65;;
29574;SDS011;16507;51.046;6.406;2023-12-20T03:13:18;0.05;;;0.05;;
29574;SDS011;16507;51.046;6.406;2023-12-20T03:15:44;1.27;;;0.20;;
29574;SDS011;16507;51.046;6.406;2023-12-20T03:18:10;0.52;;;0.52;;
29574;SDS011;16507;51.046;6.406;2023-12-20T03:20:36;0.00;;;0.00;;
29574;SDS011;16507;51.046;6.406;2023-12-20T03:23:01;0.38;;;0.38;;
29574;SDS011;16507;51.046;6.406;2023-12-20T03:25:27;7.22;;;1.23;;
29574;SDS011;16507;51.046;6.406;2023-12-20T03:27:53;0.00;;;0.00;;
29574;SDS011;16507;51.046;6.406;2023-12-20T03:30:18;0.05;;;0.05;;
29574;SDS011;16507;51.046;6.406;2023-12-20T03:32:44;7.60;;;0.57;;
29574;SDS011;16507;51.046;6.406;2023-12-20T03:35:10;0.70;;;0.30;;
29574;SDS011;16507;51.046;6.406;2023-12-20T03:37:36;0.20;;;0.20;;
29574;SDS011;16507;51.046;6.406;2023-12-20T03:40:02;15.45;;;0.63;;
29574;SDS011;16507;51.046;6.406;2023-12-20T03:42:28;6.72;;;0.57;;
29574;SDS011;16507;51.046;6.406;2023-12-20T03:44:53;0.00;;;0.00;;
29574;SDS011;16507;51.046;6.406;2023-12-20T03:47:19;0.03;;;0.03;;
29574;SDS011;16507;51.046;6.406;2023-12-20T03:49:45;0.00;;;0.00;;
29574;SDS011;16507;51.046;6.406;2023-12-20T03:52:10;0.03;;;0.03;;
29574;SDS011;16507;51.046;6.406;2023-12-20T03:54:36;0.10;;;0.10;;
29574;SDS011;16507;51.046;6.406;2023-12-20T03:57:01;0.10;;;0.10;;
29574;SDS011;16507;51.046;6.406;2023-12-20T03:59:27;6.03;;;1.50;;
29574;SDS011;16507;51.046;6.406;2023-12-20T04:01:52;0.43;;;0.43;;
29574;SDS011;16507;51.046;6.406;2023-12-20T04:04:18;0.10;;;0.10;;
29574;SDS011;16507;51.046;6.406;2023-12-20T04:06:44;1.67;;;0.65;;
29574;SDS011;16507;51.046;6.406;2023-12-20T04:09:10;0.00;;;0.00;;
29574;SDS011;16507;51.046;6.406;2023-12-20T04:11:38;1.25;;;0.57;;
29574;SDS011;16507;51.046;6.406;2023-12-20T04:14:04;0.15;;;0.15;;
29574;SDS011;16507;51.046;6.406;2023-12-20T04:16:30;0.30;;;0.30;;
29574;SDS011;16507;51.046;6.406;2023-12-20T04:18:55;0.88;;;0.80;;
29574;SDS011;16507;51.046;6.406;2023-12-20T04:21:21;0.73;;;0.73;;
29574;SDS011;16507;51.046;6.406;2023-12-20T04:23:47;0.00;;;0.00;;
29574;SDS011;16507;51.046;6.406;2023-12-20T04:26:12;0.00;;;0.00;;
29574;SDS011;16507;51.046;6.406;2023-12-20T04:28:38;1.40;;;0.77;;
29574;SDS011;16507;51.046;6.406;2023-12-20T04:31:03;1.95;;;0.85;;
29574;SDS011;16507;51.046;6.406;2023-12-20T04:33:29;0.10;;;0.10;;
29574;SDS011;16507;51.046;6.406;2023-12-20T04:35:54;3.13;;;1.67;;
29574;SDS011;16507;51.046;6.406;2023-12-20T04:38:20;0.60;;;0.60;;
29574;SDS011;16507;51.046;6.406;2023-12-20T04:40:46;1.02;;;0.98;;
29574;SDS011;16507;51.046;6.406;2023-12-20T04:43:12;0.70;;;0.45;;
29574;SDS011;16507;51.046;6.406;2023-12-20T04:45:38;0.00;;;0.00;;
29574;SDS011;16507;51.046;6.406;2023-12-20T04:48:04;0.00;;;0.00;;
29574;SDS011;16507;51.046;6.406;2023-12-20T04:50:30;0.43;;;0.22;;
29574;SDS011;16507;51.046;6.406;2023-12-20T04:52:55;7.97;;;0.65;;
29574;SDS011;16507;51.046;6.406;2023-12-20T04:55:21;5.20;;;0.95;;
29574;SDS011;16507;51.046;6.406;2023-12-20T04:57:47;2.10;;;0.95;;
29574;SDS011;16507;51.046;6.406;2023-12-20T05:00:12;2.42;;;0.88;;
29574;SDS011;16507;51.046;6.406;2023-12-20T05:02:40;0.40;;;0.40;;
29574;SDS011;16507;51.046;6.406;2023-12-20T05:05:06;1.23;;;0.40;;
29574;SDS011;16507;51.046;6.406;2023-12-20T05:07:32;0.63;;;0.63;;
29574;SDS011;16507;51.046;6.406;2023-12-20T05:09:58;0.47;;;0.47;;
29574;SDS011;16507;51.046;6.406;2023-12-20T05:12:24;0.20;;;0.20;;
29574;SDS011;16507;51.046;6.406;2023-12-20T05:14:50;0.00;;;0.00;;
29574;SDS011;16507;51.046;6.406;2023-12-20T05:17:17;0.00;;;0.00;;
29574;SDS011;16507;51.046;6.406;2023-12-20T05:19:42;0.00;;;0.00;;
29574;SDS011;16507;51.046;6.406;2023-12-20T05:22:08;3.40;;;0.65;;
29574;SDS011;16507;51.046;6.406;2023-12-20T05:24:34;2.85;;;1.08;;
29574;SDS011;16507;51.046;6.406;2023-12-20T05:27:00;3.03;;;1.10;;
29574;SDS011;16507;51.046;6.406;2023-12-20T05:29:25;0.20;;;0.20;;
29574;SDS011;16507;51.046;6.406;2023-12-20T05:31:51;0.13;;;0.13;;
29574;SDS011;16507;51.046;6.406;2023-12-20T05:34:16;0.32;;;0.32;;
29574;SDS011;16507;51.046;6.406;2023-12-20T05:36:42;0.38;;;0.20;;
29574;SDS011;16507;51.046;6.406;2023-12-20T05:39:08;0.00;;;0.00;;
29574;SDS011;16507;51.046;6.406;2023-12-20T05:41:33;2.92;;;1.27;;
29574;SDS011;16507;51.046;6.406;2023-12-20T05:43:59;0.10;;;0.10;;
29574;SDS011;16507;51.046;6.406;2023-12-20T05:46:25;0.15;;;0.15;;
29574;SDS011;16507;51.046;6.406;2023-12-20T05:48:50;0.08;;;0.08;;
29574;SDS011;16507;51.046;6.406;2023-12-20T05:51:16;11.57;;;1.92;;
29574;SDS011;16507;51.046;6.406;2023-12-20T05:53:43;0.00;;;0.00;;
29574;SDS011;16507;51.046;6.406;2023-12-20T05:56:09;0.00;;;0.00;;
29574;SDS011;16507;51.046;6.406;2023-12-20T05:58:35;0.52;;;0.52;;
29574;SDS011;16507;51.046;6.406;2023-12-20T06:01:00;22.65;;;4.57;;
29574;SDS011;16507;51.046;6.406;2023-12-20T06:03:29;23.88;;;4.10;;
29574;SDS011;16507;51.046;6.406;2023-12-20T06:05:54;22.40;;;4.20;;
29574;SDS011;16507;51.046;6.406;2023-12-20T06:08:23;27.92;;;4.32;;
29574;SDS011;16507;51.046;6.406;2023-12-20T06:10:48;24.33;;;3.83;;
29574;SDS011;16507;51.046;6.406;2023-12-20T06:13:14;20.50;;;4.45;;
29574;SDS011;16507;51.046;6.406;2023-12-20T06:15:40;27.65;;;3.90;;
29574;SDS011;16507;51.046;6.406;2023-12-20T06:18:06;27.75;;;4.97;;
29574;SDS011;16507;51.046;6.406;2023-12-20T06:20:35;16.75;;;4.00;;
29574;SDS011;16507;51.046;6.406;2023-12-20T06:23:01;26.90;;;4.57;;
29574;SDS011;16507;51.046;6.406;2023-12-20T06:25:26;29.25;;;5.18;;
29574;SDS011;16507;51.046;6.406;2023-12-20T06:27:52;16.60;;;3.67;;
29574;SDS011;16507;51.046;6.406;2023-12-20T06:30:18;26.77;;;3.97;;
29574;SDS011;16507;51.046;6.406;2023-12-20T06:32:43;20.50;;;3.85;;
29574;SDS011;16507;51.046;6.406;2023-12-20T06:35:09;24.27;;;4.10;;
29574;SDS011;16507;51.046;6.406;2023-12-20T06:37:35;21.70;;;4.03;;
29574;SDS011;16507;51.046;6.406;2023-12-20T06:40:00;15.02;;;3.90;;
29574;SDS011;16507;51.046;6.406;2023-12-20T06:42:26;21.45;;;4.55;;
29574;SDS011;16507;51.046;6.406;2023-12-20T06:44:52;21.52;;;4.03;;
29574;SDS011;16507;51.046;6.406;2023-12-20T06:47:17;23.58;;;4.78;;
29574;SDS011;16507;51.046;6.406;2023-12-20T06:49:43;11.82;;;3.90;;
29574;SDS011;16507;51.046;6.406;2023-12-20T06:52:09;17.17;;;4.18;;
29574;SDS011;16507;51.046;6.406;2023-12-20T06:54:35;10.93;;;4.07;;
29574;SDS011;16507;51.046;6.406;2023-12-20T06:57:01;17.33;;;3.72;;
29574;SDS011;16507;51.046;6.406;2023-12-20T06:59:28;27.60;;;5.32;;
29574;SDS011;16507;51.046;6.406;2023-12-20T07:01:54;14.07;;;3.40;;
29574;SDS011;16507;51.046;6.406;2023-12-20T07:04:20;20.27;;;4.65;;
29574;SDS011;16507;51.046;6.406;2023-12-20T07:06:47;25.98;;;5.20;;
29574;SDS011;16507;51.046;6.406;2023-12-20T07:09:22;20.90;;;4.15;;
29574;SDS011;16507;51.046;6.406;2023-12-20T07:11:48;18.58;;;4.60;;
29574;SDS011;16507;51.046;6.406;2023-12-20T07:14:13;22.70;;;5.03;;
29574;SDS011;16507;51.046;6.406;2023-12-20T07:16:39;31.38;;;4.60;;
29574;SDS011;16507;51.046;6.406;2023-12-20T07:19:05;20.05;;;4.75;;
29574;SDS011;16507;51.046;6.406;2023-12-20T07:21:31;23.48;;;4.85;;
29574;SDS011;16507;51.046;6.406;2023-12-20T07:23:57;23.80;;;4.97;;
29574;SDS011;16507;51.046;6.406;2023-12-20T07:26:22;20.73;;;4.22;;
29574;SDS011;16507;51.046;6.406;2023-12-20T07:28:48;23.83;;;5.07;;
29574;SDS011;16507;51.046;6.406;2023-12-20T07:31:17;15.82;;;4.05;;
29574;SDS011;16507;51.046;6.406;2023-12-20T07:33:43;23.63;;;4.85;;
29574;SDS011;16507;51.046;6.406;2023-12-20T07:36:09;13.70;;;3.90;;
29574;SDS011;16507;51.046;6.406;2023-12-20T07:38:34;15.10;;;4.57;;
29574;SDS011;16507;51.046;6.406;2023-12-20T07:41:00;27.77;;;5.63;;
29574;SDS011;16507;51.046;6.406;2023-12-20T07:43:25;22.20;;;5.85;;
29574;SDS011;16507;51.046;6.406;2023-12-20T07:45:51;15.07;;;4.20;;
29574;SDS011;16507;51.046;6.406;2023-12-20T07:48:17;22.50;;;5.15;;
29574;SDS011;16507;51.046;6.406;2023-12-20T07:50:42;16.50;;;4.82;;
29574;SDS011;16507;51.046;6.406;2023-12-20T07:53:08;21.55;;;4.40;;
29574;SDS011;16507;51.046;6.406;2023-12-20T07:55:33;27.35;;;4.30;;
29574;SDS011;16507;51.046;6.406;2023-12-20T07:57:59;28.42;;;4.82;;
29574;SDS011;16507;51.046;6.406;2023-12-20T08:00:25;25.60;;;5.60;;
29574;SDS011;16507;51.046;6.406;2023-12-20T08:02:51;20.67;;;3.75;;
29574;SDS011;16507;51.046;6.406;2023-12-20T08:05:16;11.85;;;3.40;;
29574;SDS011;16507;51.046;6.406;2023-12-20T08:07:42;21.02;;;4.55;;
29574;SDS011;16507;51.046;6.406;2023-12-20T08:10:07;25.52;;;4.20;;
29574;SDS011;16507;51.046;6.406;2023-12-20T08:12:33;14.85;;;3.97;;
29574;SDS011;16507;51.046;6.406;2023-12-20T08:14:59;9.75;;;3.60;;
29574;SDS011;16507;51.046;6.406;2023-12-20T08:17:25;17.13;;;3.58;;
29574;SDS011;16507;51.046;6.406;2023-12-20T08:19:51;21.48;;;4.15;;
29574;SDS011;16507;51.046;6.406;2023-12-20T08:22:16;24.27;;;4.82;;
29574;SDS011;16507;51.046;6.406;2023-12-20T08:24:42;12.90;;;4.03;;
29574;SDS011;16507;51.046;6.406;2023-12-20T08:27:08;16.10;;;3.83;;
29574;SDS011;16507;51.046;6.406;2023-12-20T08:29:34;13.98;;;3.50;;
29574;SDS011;16507;51.046;6.406;2023-12-20T08:32:00;14.48;;;3.38;;
29574;SDS011;16507;51.046;6.406;2023-12-20T08:34:26;16.15;;;2.92;;
29574;SDS011;16507;51.046;6.406;2023-12-20T08:36:52;15.05;;;3.35;;
29574;SDS011;16507;51.046;6.406;2023-12-20T08:39:18;13.77;;;3.28;;
29574;SDS011;16507;51.046;6.406;2023-12-20T08:41:43;18.35;;;3.80;;
29574;SDS011;16507;51.046;6.406;2023-12-20T08:44:09;19.73;;;4.65;;
29574;SDS011;16507;51.046;6.406;2023-12-20T08:46:35;19.58;;;3.88;;
29574;SDS011;16507;51.046;6.406;2023-12-20T08:49:01;17.30;;;3.63;;
29574;SDS011;16507;51.046;6.406;2023-12-20T08:51:26;16.40;;;5.45;;
29574;SDS011;16507;51.046;6.406;2023-12-20T08:53:52;12.18;;;4.10;;
29574;SDS011;16507;51.046;6.406;2023-12-20T08:56:18;9.88;;;3.22;;
29574;SDS011;16507;51.046;6.406;2023-12-20T08:58:45;16.65;;;3.55;;
29574;SDS011;16507;51.046;6.406;2023-12-20T09:01:12;16.80;;;3.60;;
29574;SDS011;16507;51.046;6.406;2023-12-20T09:03:38;18.20;;;3.63;;
29574;SDS011;16507;51.046;6.406;2023-12-20T09:06:04;14.07;;;3.35;;
29574;SDS011;16507;51.046;6.406;2023-12-20T09:08:30;13.52;;;3.72;;
29574;SDS011;16507;51.046;6.406;2023-12-20T09:10:56;14.70;;;3.45;;
29574;SDS011;16507;51.046;6.406;2023-12-20T09:13:22;11.13;;;2.88;;
29574;SDS011;16507;51.046;6.406;2023-12-20T09:15:52;10.75;;;3.08;;
29574;SDS011;16507;51.046;6.406;2023-12-20T09:18:21;11.95;;;3.22;;
29574;SDS011;16507;51.046;6.406;2023-12-20T09:20:46;16.13;;;3.03;;
29574;SDS011;16507;51.046;6.406;2023-12-20T09:23:12;14.30;;;2.50;;
29574;SDS011;16507;51.046;6.406;2023-12-20T09:25:38;17.33;;;2.90;;
29574;SDS011;16507;51.046;6.406;2023-12-20T09:28:03;15.95;;;3.08;;
29574;SDS011;16507;51.046;6.406;2023-12-20T09:30:32;15.52;;;2.80;;
29574;SDS011;16507;51.046;6.406;2023-12-20T09:32:58;10.40;;;3.40;;
29574;SDS011;16507;51.046;6.406;2023-12-20T09:35:23;18.50;;;3.03;;
29574;SDS011;16507;51.046;6.406;2023-12-20T09:37:49;23.33;;;3.25;;
29574;SDS011;16507;51.046;6.406;2023-12-20T09:40:15;18.60;;;3.70;;
29574;SDS011;16507;51.046;6.406;2023-12-20T09:45:22;10.93;;;2.97;;
29574;SDS011;16507;51.046;6.406;2023-12-20T09:47:48;17.15;;;2.95;;
29574;SDS011;16507;51.046;6.406;2023-12-20T09:50:20;14.23;;;2.65;;
29574;SDS011;16507;51.046;6.406;2023-12-20T09:52:49;16.20;;;2.15;;
29574;SDS011;16507;51.046;6.406;2023-12-20T09:55:19;15.35;;;2.25;;
29574;SDS011;16507;51.046;6.406;2023-12-20T09:57:46;12.35;;;2.35;;
29574;SDS011;16507;51.046;6.406;2023-12-20T10:00:12;10.10;;;2.70;;
29574;SDS011;16507;51.046;6.406;2023-12-20T10:02:44;14.25;;;2.80;;
29574;SDS011;16507;51.046;6.406;2023-12-20T10:05:31;12.50;;;2.67;;
29574;SDS011;16507;51.046;6.406;2023-12-20T10:07:58;17.08;;;3.17;;
29574;SDS011;16507;51.046;6.406;2023-12-20T10:10:25;10.77;;;2.53;;
29574;SDS011;16507;51.046;6.406;2023-12-20T10:15:46;12.48;;;2.58;;
29574;SDS011;16507;51.046;6.406;2023-12-20T10:18:12;12.65;;;2.35;;
29574;SDS011;16507;51.046;6.406;2023-12-20T10:20:39;8.65;;;2.30;;
29574;SDS011;16507;51.046;6.406;2023-12-20T10:23:06;16.27;;;3.13;;
29574;SDS011;16507;51.046;6.406;2023-12-20T10:25:33;12.43;;;2.75;;
29574;SDS011;16507;51.046;6.406;2023-12-20T10:28:15;19.58;;;3.00;;
29574;SDS011;16507;51.046;6.406;2023-12-20T10:30:46;16.48;;;2.55;;
29574;SDS011;16507;51.046;6.406;2023-12-20T10:33:11;6.15;;;2.22;;
29574;SDS011;16507;51.046;6.406;2023-12-20T10:35:37;10.43;;;2.15;;
29574;SDS011;16507;51.046;6.406;2023-12-20T10:38:04;10.10;;;2.67;;
29574;SDS011;16507;51.046;6.406;2023-12-20T10:40:32;15.30;;;2.20;;
29574;SDS011;16507;51.046;6.406;2023-12-20T10:43:01;14.35;;;3.20;;
29574;SDS011;16507;51.046;6.406;2023-12-20T10:45:28;11.10;;;2.67;;
29574;SDS011;16507;51.046;6.406;2023-12-20T10:47:54;16.88;;;3.15;;
29574;SDS011;16507;51.046;6.406;2023-12-20T10:50:21;15.48;;;3.70;;
29574;SDS011;16507;51.046;6.406;2023-12-20T10:52:46;15.25;;;2.83;;
29574;SDS011;16507;51.046;6.406;2023-12-20T10:55:12;16.75;;;3.17;;
29574;SDS011;16507;51.046;6.406;2023-12-20T10:57:38;16.45;;;3.47;;
29574;SDS011;16507;51.046;6.406;2023-12-20T11:00:05;17.65;;;3.10;;
29574;SDS011;16507;51.046;6.406;2023-12-20T11:02:39;14.07;;;2.50;;
29574;SDS011;16507;51.046;6.406;2023-12-20T11:08:06;11.10;;;2.47;;
29574;SDS011;16507;51.046;6.406;2023-12-20T11:10:40;12.20;;;2.88;;
29574;SDS011;16507;51.046;6.406;2023-12-20T11:13:30;11.85;;;2.50;;
29574;SDS011;16507;51.046;6.406;2023-12-20T11:16:18;28.33;;;4.53;;
29574;SDS011;16507;51.046;6.406;2023-12-20T11:18:44;17.27;;;3.90;;
29574;SDS011;16507;51.046;6.406;2023-12-20T11:21:10;12.73;;;2.25;;
29574;SDS011;16507;51.046;6.406;2023-12-20T11:23:36;11.93;;;2.30;;
29574;SDS011;16507;51.046;6.406;2023-12-20T11:26:02;15.07;;;1.92;;
29574;SDS011;16507;51.046;6.406;2023-12-20T11:28:28;12.35;;;2.75;;
29574;SDS011;16507;51.046;6.406;2023-12-20T11:30:56;9.25;;;2.15;;
29574;SDS011;16507;51.046;6.406;2023-12-20T11:33:46;12.48;;;2.30;;
29574;SDS011;16507;51.046;6.406;2023-12-20T11:36:14;11.10;;;1.80;;
29574;SDS011;16507;51.046;6.406;2023-12-20T11:38:58;9.52;;;2.67;;
29574;SDS011;16507;51.046;6.406;2023-12-20T11:41:25;17.70;;;2.38;;
29574;SDS011;16507;51.046;6.406;2023-12-20T11:43:54;15.30;;;2.50;;
29574;SDS011;16507;51.046;6.406;2023-12-20T11:46:21;22.10;;;3.13;;
29574;SDS011;16507;51.046;6.406;2023-12-20T11:48:47;16.67;;;3.00;;
29574;SDS011;16507;51.046;6.406;2023-12-20T11:51:13;16.00;;;3.13;;
29574;SDS011;16507;51.046;6.406;2023-12-20T11:53:40;10.27;;;2.90;;
29574;SDS011;16507;51.046;6.406;2023-12-20T11:56:07;10.70;;;3.20;;
29574;SDS011;16507;51.046;6.406;2023-12-20T11:58:33;15.57;;;3.10;;
29574;SDS011;16507;51.046;6.406;2023-12-20T12:00:59;16.23;;;3.30;;
29574;SDS011;16507;51.046;6.406;2023-12-20T12:03:25;11.43;;;2.83;;
29574;SDS011;16507;51.046;6.406;2023-12-20T12:05:51;6.88;;;2.85;;
29574;SDS011;16507;51.046;6.406;2023-12-20T12:08:16;21.13;;;5.90;;
29574;SDS011;16507;51.046;6.406;2023-12-20T12:10:43;12.02;;;3.40;;
29574;SDS011;16507;51.046;6.406;2023-12-20T12:13:09;17.80;;;5.00;;
29574;SDS011;16507;51.046;6.406;2023-12-20T12:15:36;10.10;;;3.40;;
29574;SDS011;16507;51.046;6.406;2023-12-20T12:18:02;21.70;;;3.60;;
29574;SDS011;16507;51.046;6.406;2023-12-20T12:20:29;13.32;;;4.13;;
29574;SDS011;16507;51.046;6.406;2023-12-20T12:22:58;16.42;;;3.28;;
29574;SDS011;16507;51.046;6.406;2023-12-20T12:25:24;14.50;;;3.30;;
29574;SDS011;16507;51.046;6.406;2023-12-20T12:27:50;12.93;;;3.30;;
29574;SDS011;16507;51.046;6.406;2023-12-20T12:30:16;7.93;;;2.60;;
29574;SDS011;16507;51.046;6.406;2023-12-20T12:32:43;14.50;;;3.47;;
29574;SDS011;16507;51.046;6.406;2023-12-20T12:35:09;16.45;;;3.33;;
29574;SDS011;16507;51.046;6.406;2023-12-20T12:37:37;18.55;;;3.28;;
29574;SDS011;16507;51.046;6.406;2023-12-20T12:40:09;15.27;;;3.30;;
29574;SDS011;16507;51.046;6.406;2023-12-20T12:42:36;10.85;;;3.15;;
29574;SDS011;16507;51.046;6.406;2023-12-20T12:45:02;19.08;;;3.78;;
29574;SDS011;16507;51.046;6.406;2023-12-20T12:47:29;18.65;;;4.70;;
29574;SDS011;16507;51.046;6.406;2023-12-20T12:49:55;15.80;;;4.85;;
29574;SDS011;16507;51.046;6.406;2023-12-20T12:52:21;19.30;;;4.10;;
29574;SDS011;16507;51.046;6.406;2023-12-20T12:54:47;21.23;;;5.20;;
29574;SDS011;16507;51.046;6.406;2023-12-20T12:57:14;7.28;;;2.92;;
29574;SDS011;16507;51.046;6.406;2023-12-20T12:59:41;17.70;;;3.80;;
29574;SDS011;16507;51.046;6.406;2023-12-20T13:02:08;17.70;;;3.50;;
29574;SDS011;16507;51.046;6.406;2023-12-20T13:04:34;11.15;;;3.38;;
29574;SDS011;16507;51.046;6.406;2023-12-20T13:07:00;12.73;;;3.72;;
29574;SDS011;16507;51.046;6.406;2023-12-20T13:09:25;9.48;;;3.05;;
29574;SDS011;16507;51.046;6.406;2023-12-20T13:11:51;10.90;;;3.30;;
29574;SDS011;16507;51.046;6.406;2023-12-20T13:14:16;27.90;;;5.82;;
29574;SDS011;16507;51.046;6.406;2023-12-20T13:16:42;18.90;;;4.72;;
29574;SDS011;16507;51.046;6.406;2023-12-20T13:19:09;17.52;;;4.32;;
29574;SDS011;16507;51.046;6.406;2023-12-20T13:21:35;11.98;;;2.65;;
29574;SDS011;16507;51.046;6.406;2023-12-20T13:24:01;12.30;;;2.88;;
29574;SDS011;16507;51.046;6.406;2023-12-20T13:26:27;8.88;;;3.35;;
29574;SDS011;16507;51.046;6.406;2023-12-20T13:28:53;7.53;;;2.72;;
29574;SDS011;16507;51.046;6.406;2023-12-20T13:31:19;14.63;;;3.53;;
29574;SDS011;16507;51.046;6.406;2023-12-20T13:33:45;15.18;;;3.08;;
29574;SDS011;16507;51.046;6.406;2023-12-20T13:36:11;11.40;;;2.70;;
29574;SDS011;16507;51.046;6.406;2023-12-20T13:38:37;16.13;;;3.30;;
29574;SDS011;16507;51.046;6.406;2023-12-20T13:41:03;16.70;;;3.42;;
29574;SDS011;16507;51.046;6.406;2023-12-20T13:43:29;13.40;;;2.88;;
29574;SDS011;16507;51.046;6.406;2023-12-20T13:45:57;12.70;;;2.75;;
29574;SDS011;16507;51.046;6.406;2023-12-20T13:48:23;12.75;;;2.90;;
29574;SDS011;16507;51.046;6.406;2023-12-20T13:50:49;8.73;;;2.88;;
29574;SDS011;16507;51.046;6.406;2023-12-20T13:53:14;17.25;;;3.55;;
29574;SDS011;16507;51.046;6.406;2023-12-20T13:55:40;17.17;;;4.03;;
29574;SDS011;16507;51.046;6.406;2023-12-20T13:58:06;15.50;;;2.75;;
29574;SDS011;16507;51.046;6.406;2023-12-20T14:00:32;15.32;;;3.33;;
29574;SDS011;16507;51.046;6.406;2023-12-20T14:02:57;9.95;;;3.60;;
29574;SDS011;16507;51.046;6.406;2023-12-20T14:05:23;9.25;;;3.47;;
29574;SDS011;16507;51.046;6.406;2023-12-20T14:07:49;24.17;;;3.53;;
29574;SDS011;16507;51.046;6.406;2023-12-20T14:10:15;14.07;;;3.72;;
29574;SDS011;16507;51.046;6.406;2023-12-20T14:12:41;16.27;;;4.22;;
29574;SDS011;16507;51.046;6.406;2023-12-20T14:15:07;16.25;;;4.00;;
29574;SDS011;16507;51.046;6.406;2023-12-20T14:17:38;20.88;;;5.03;;
29574;SDS011;16507;51.046;6.406;2023-12-20T14:20:07;12.95;;;3.60;;
29574;SDS011;16507;51.046;6.406;2023-12-20T14:22:33;13.25;;;3.97;;
29574;SDS011;16507;51.046;6.406;2023-12-20T14:24:59;30.70;;;6.18;;
29574;SDS011;16507;51.046;6.406;2023-12-20T14:27:25;8.05;;;3.28;;
29574;SDS011;16507;51.046;6.406;2023-12-20T14:29:52;12.95;;;3.17;;
29574;SDS011;16507;51.046;6.406;2023-12-20T14:32:18;14.18;;;3.90;;
29574;SDS011;16507;51.046;6.406;2023-12-20T14:34:44;17.25;;;3.67;;
29574;SDS011;16507;51.046;6.406;2023-12-20T14:37:10;14.50;;;2.65;;
29574;SDS011;16507;51.046;6.406;2023-12-20T14:39:36;15.77;;;2.85;;
29574;SDS011;16507;51.046;6.406;2023-12-20T14:42:06;12.93;;;2.53;;
29574;SDS011;16507;51.046;6.406;2023-12-20T14:44:38;8.85;;;2.42;;